Flight Track Log - Related Links

Times and Time Zones

All times are in EDT time to prevent confusion due to time zone crossing. See the UAL1177 flight status page for this flight to view local times or setup timezone preferences in your user account.

Time Position Orientation Groundspeed Altitude Reporting Facility
EDT Latitude Longitude Course Direction KTS MPH feet Rate Location/Type
Sat 09:25:25 PM 39.8833 -104.5833 327° Northwest 196 226 6,900  Level Denver TRACON
Sat 09:26:07 PM 39.8833 -104.5167 90° East 234 269 7,900 1,471 Climbing Denver TRACON
Sat 09:27:00 PM 40.0094 -104.3667 North  Level FlightAware Approximate
Sat 09:27:07 PM 39.9167 -104.4333 62° Northeast 279 321 9,400  Level Denver TRACON
Sat 09:28:00 PM 40.1021 -104.4188 323° Northwest  Level FlightAware Approximate
Sat 09:28:07 PM 40.0000 -104.4167 North 306 352 11,500  Level Denver TRACON
Sat 09:29:00 PM 40.1867 -104.5029 327° Northwest  Level FlightAware Approximate
Sat 09:29:09 PM 40.0789 -104.4528 341° North 305 351 14,200  Level Denver Center
Sat 09:30:00 PM 40.2755 -104.5790 327° Northwest  Level FlightAware Approximate
Sat 09:30:11 PM 40.1575 -104.5128 330° Northwest 325 374 16,300  Level Denver Center
Sat 09:31:12 PM 40.2456 -104.5933 325° Northwest 368 423 17,400 1,672 Climbing Denver Center
Sat 09:32:13 PM 40.3369 -104.6775 325° Northwest 398 458 19,700 2,115 Climbing Denver Center
Sat 09:33:14 PM 40.4269 -104.7611 325° Northwest 401 461 21,700 1,623 Climbing Denver Center
Sat 09:34:15 PM 40.5283 -104.8531 325° Northwest 411 473 23,000 1,561 Climbing Denver Center
Sat 09:35:17 PM 40.6233 -104.9400 325° Northwest 418 481 24,900 1,610 Climbing Denver Center
Sat 09:36:18 PM 40.7181 -105.0297 324° Northwest 421 484 26,300 1,328 Climbing Denver Center
Sat 09:37:19 PM 40.8133 -105.1269 322° Northwest 407 468 27,600 1,230 Climbing Denver Center
Sat 09:38:20 PM 40.8653 -105.2644 297° West 435 501 28,800 1,230 Climbing Denver Center
Sat 09:39:21 PM 40.9111 -105.4003 294° West 426 490 30,100 1,279 Climbing Denver Center
Sat 09:40:22 PM 40.9658 -105.5617 294° West 428 493 31,400 1,122 Climbing Denver Center
Sat 09:41:24 PM 41.0131 -105.7003 294° West 429 494 32,400 1,171 Climbing Denver Center
Sat 09:42:25 PM 41.0606 -105.8397 294° West 432 497 33,800 1,377 Climbing Denver Center
Sat 09:43:26 PM 41.1150 -106.0000 294° West 430 495 35,200 1,082 Climbing Denver Center
Sat 09:44:27 PM 41.1592 -106.1350 294° West 424 488 36,000 393 Climbing Denver Center
Sat 09:45:28 PM 41.2053 -106.2789 293° West 408 470 36,000  Level Denver Center
Sat 09:46:41 PM 41.2508 -106.4136 294° West 415 478 36,000  Level Denver Center
Sat 09:47:43 PM 41.3119 -106.5953 294° West 421 484 36,000  Level Denver Center
Sat 09:48:44 PM 41.3542 -106.7306 293° West 417 480 36,000  Level Denver Center
Sat 09:49:45 PM 41.4078 -106.8878 294° West 418 481 36,000  Level Denver Center
Sat 09:50:46 PM 41.4503 -107.0203 293° West 411 473 36,000  Level Denver Center
Sat 09:51:47 PM 41.4928 -107.1536 293° West 409 471 36,000  Level Denver Center
Sat 09:52:49 PM 41.5436 -107.3100 294° West 411 473 36,000  Level Denver Center
Sat 09:53:50 PM 41.5869 -107.4456 293° West 413 475 36,000  Level Denver Center
Sat 09:54:51 PM 41.6372 -107.6053 293° West 417 480 36,000  Level Denver Center
Sat 09:55:52 PM 41.6814 -107.7442 293° West 423 487 36,000  Level Denver Center
Sat 09:56:53 PM 41.7247 -107.8825 293° West 421 484 36,000  Level Denver Center
Sat 09:57:32 PM 41.7531 -107.9769 292° West 425 489 36,000  Level Salt Lake Center
Sat 09:58:33 PM 41.8014 -108.1367 292° West 419 482 36,000  Level Salt Lake Center
Sat 09:59:34 PM 41.8436 -108.2744 292° West 420 483 36,000  Level Salt Lake Center
Sat 10:00:35 PM 41.8947 -108.4353 293° West 421 484 36,000  Level Salt Lake Center
Sat 10:01:36 PM 41.9383 -108.5747 293° West 425 489 36,000  Level Salt Lake Center
Sat 10:02:37 PM 41.9794 -108.7128 292° West 420 483 36,000  Level Salt Lake Center
Sat 10:03:38 PM 42.0275 -108.8722 292° West 416 479 36,000  Level Salt Lake Center
Sat 10:04:39 PM 42.0683 -109.0092 292° West 414 476 36,000  Level Salt Lake Center
Sat 10:05:39 PM 42.1164 -109.1711 292° West 417 480 36,000  Level Salt Lake Center
Sat 10:06:40 PM 42.1575 -109.3108 292° West 420 483 36,000  Level Salt Lake Center
Sat 10:07:41 PM 42.1978 -109.4492 291° West 417 480 36,000  Level Salt Lake Center
Sat 10:08:42 PM 42.2450 -109.6106 292° West 416 479 36,000  Level Salt Lake Center
Sat 10:09:43 PM 42.2847 -109.7464 292° West 410 472 36,000  Level Salt Lake Center
Sat 10:10:44 PM 42.3242 -109.8819 292° West 407 468 36,000  Level Salt Lake Center
Sat 10:11:45 PM 42.3694 -110.0408 291° West 407 468 36,000  Level Salt Lake Center
Sat 10:12:46 PM 42.4092 -110.1764 292° West 406 467 36,000  Level Salt Lake Center
Sat 10:13:47 PM 42.4486 -110.3142 291° West 410 472 36,000  Level Salt Lake Center
Sat 10:14:48 PM 42.4939 -110.4739 291° West 409 471 36,000  Level Salt Lake Center
Sat 10:15:49 PM 42.5325 -110.6114 291° West 409 471 36,000  Level Salt Lake Center
Sat 10:16:50 PM 42.5775 -110.7747 291° West 413 475 36,000  Level Salt Lake Center
Sat 10:17:50 PM 42.6169 -110.9122 291° West 411 473 36,000  Level Salt Lake Center
Sat 10:18:51 PM 42.6539 -111.0492 290° West 411 473 36,000  Level Salt Lake Center
Sat 10:19:52 PM 42.6939 -111.1925 291° West 408 470 36,000  Level Salt Lake Center
Sat 10:20:53 PM 42.7375 -111.3461 291° West 406 467 36,000  Level Salt Lake Center
Sat 10:21:54 PM 42.7742 -111.4836 290° West 405 466 36,000  Level Salt Lake Center
Sat 10:22:55 PM 42.8183 -111.6444 291° West 406 467 36,000  Level Salt Lake Center
Sat 10:23:56 PM 42.8544 -111.7789 290° West 399 459 36,000  Level Salt Lake Center
Sat 10:24:57 PM 42.8908 -111.9161 290° West 400 460 36,000  Level Salt Lake Center
Sat 10:25:58 PM 42.9339 -112.0764 290° West 402 463 36,000  Level Salt Lake Center
Sat 10:26:59 PM 42.9706 -112.2150 290° West 404 465 36,000  Level Salt Lake Center
Sat 10:27:59 PM 43.0067 -112.3531 290° West 403 464 36,000  Level Salt Lake Center
Sat 10:29:00 PM 43.0492 -112.5161 290° West 406 467 36,000  Level Salt Lake Center
Sat 10:30:01 PM 43.0847 -112.6572 289° West 410 472 36,000  Level Salt Lake Center
Sat 10:31:02 PM 43.1217 -112.7958 290° West 406 467 36,000  Level Salt Lake Center
Sat 10:32:03 PM 43.1636 -112.9583 290° West 407 468 36,000  Level Salt Lake Center
Sat 10:33:04 PM 43.1975 -113.0964 289° West 401 461 36,000  Level Salt Lake Center
Sat 10:34:05 PM 43.2333 -113.2356 290° West 403 464 36,000  Level Salt Lake Center
Sat 10:35:05 PM 43.2747 -113.3994 289° West 406 467 36,000  Level Salt Lake Center
Sat 10:36:06 PM 43.3089 -113.5361 289° West 398 458 36,000  Level Salt Lake Center
Sat 10:37:07 PM 43.3422 -113.6733 289° West 397 457 36,000  Level Salt Lake Center
Sat 10:38:08 PM 43.3853 -113.8308 291° West 396 456 36,000  Level Salt Lake Center
Sat 10:39:09 PM 43.4278 -113.9656 294° West 406 467 36,000  Level Salt Lake Center
Sat 10:40:10 PM 43.4769 -114.1194 294° West 395 455 36,000  Level Salt Lake Center
Sat 10:41:11 PM 43.5186 -114.2514 294° West 393 452 36,000  Level Salt Lake Center
Sat 10:42:12 PM 43.5600 -114.3844 293° West 394 453 36,000  Level Salt Lake Center
Sat 10:43:12 PM 43.6092 -114.5389 294° West 394 453 36,000  Level Salt Lake Center
Sat 10:44:13 PM 43.6489 -114.6692 293° West 387 445 36,000  Level Salt Lake Center
Sat 10:45:14 PM 43.6908 -114.8022 294° West 393 452 36,000  Level Salt Lake Center
Sat 10:46:15 PM 43.7383 -114.9575 293° West 392 451 36,000  Level Salt Lake Center
Sat 10:47:16 PM 43.7778 -115.0894 293° West 386 444 36,000  Level Salt Lake Center
Sat 10:48:17 PM 43.8181 -115.2217 293° West 389 448 36,000  Level Salt Lake Center
Sat 10:49:17 PM 43.8664 -115.3781 293° West 394 453 36,000  Level Salt Lake Center
Sat 10:50:18 PM 43.9069 -115.5133 293° West 396 456 36,000  Level Salt Lake Center
Sat 10:51:19 PM 43.9483 -115.6531 292° West 407 468 36,000  Level Salt Lake Center
Sat 10:52:20 PM 43.9964 -115.8158 292° West 407 468 36,000  Level Salt Lake Center
Sat 10:53:21 PM 44.0375 -115.9539 293° West 404 465 36,000  Level Salt Lake Center
Sat 10:54:21 PM 44.0786 -116.0947 292° West 407 468 36,000  Level Salt Lake Center
Sat 10:55:22 PM 44.1200 -116.2361 292° West 408 470 36,000  Level Salt Lake Center
Sat 10:56:23 PM 44.1683 -116.4019 292° West 409 471 36,000  Level Salt Lake Center
Sat 10:57:24 PM 44.2089 -116.5422 292° West 405 466 36,000  Level Salt Lake Center
Sat 10:58:25 PM 44.2494 -116.6842 292° West 408 470 36,000  Level Salt Lake Center
Sat 10:59:25 PM 44.2969 -116.8503 292° West 411 473 36,000  Level Salt Lake Center
Sat 11:00:26 PM 44.3381 -116.9944 292° West 414 476 36,000  Level Salt Lake Center
Sat 11:01:27 PM 44.3786 -117.1378 292° West 414 476 36,000  Level Salt Lake Center
Sat 11:02:28 PM 44.4250 -117.3053 291° West 414 476 36,000  Level Salt Lake Center
Sat 11:03:28 PM 44.4656 -117.4483 292° West 413 475 36,000  Level Salt Lake Center
Sat 11:04:29 PM 44.5056 -117.5919 291° West 413 475 36,000  Level Salt Lake Center
Sat 11:05:13 PM 44.5381 -117.7106 291° West 410 472 36,000  Level Seattle Center
Sat 11:06:14 PM 44.5772 -117.8550 291° West 414 476 36,000  Level Seattle Center
Sat 11:07:14 PM 44.6167 -118.0000 291° West 415 478 36,000  Level Seattle Center
Sat 11:08:15 PM 44.6633 -118.1722 291° West 422 486 36,000  Level Seattle Center
Sat 11:08:32 PM 44.6689 -118.1931 291° West 421 484 36,000  Level Salt Lake Center
Sat 11:09:33 PM 44.7100 -118.3483 290° West 424 488 36,000  Level Salt Lake Center
Sat 11:10:16 PM 44.7439 -118.4736 291° West 429 494 36,000  Level Seattle Center
Sat 11:11:16 PM 44.7853 -118.6303 290° West 429 494 36,000  Level Seattle Center
Sat 11:12:17 PM 44.8264 -118.7872 290° West 429 494 36,000  Level Seattle Center
Sat 11:13:17 PM 44.8692 -118.9447 291° West 431 496 36,000  Level Seattle Center
Sat 11:14:18 PM 44.9083 -119.0997 290° West 425 489 36,000  Level Seattle Center
Sat 11:15:18 PM 44.9481 -119.2547 290° West 421 484 36,000  Level Seattle Center
Sat 11:16:19 PM 44.9886 -119.4056 291° West 416 479 36,000  Level Seattle Center
Sat 11:17:19 PM 45.0356 -119.5508 295° West 410 472 36,000  Level Seattle Center
Sat 11:18:20 PM 45.0803 -119.6972 293° West 412 474 36,000  Level Seattle Center
Sat 11:19:21 PM 45.1344 -119.8711 294° West 410 472 36,000 -645 Level Seattle Center
Sat 11:20:21 PM 45.1789 -120.0158 294° West 409 471 34,700 -2,000 Descending Seattle Center
Sat 11:21:21 PM 45.2228 -120.1617 293° West 409 471 32,000 -2,628 Descending Seattle Center
Sat 11:22:22 PM 45.2675 -120.3108 293° West 413 475 29,400 -2,380 Descending Seattle Center
Sat 11:23:22 PM 45.3108 -120.4569 293° West 408 470 27,200 -2,083 Descending Seattle Center
Sat 11:24:23 PM 45.3336 -120.6042 282° West 387 445 25,200 -2,033 Descending Seattle Center
Sat 11:25:23 PM 45.3553 -120.7478 282° West 376 433 23,100 -1,983 Descending Seattle Center
Sat 11:26:24 PM 45.3775 -120.8867 283° West 366 421 21,200 -1,934 Descending Seattle Center
Sat 11:27:24 PM 45.3981 -121.0247 282° West 360 414 19,200 -1,934 Descending Seattle Center
Sat 11:28:25 PM 45.4194 -121.1631 282° West 359 413 17,300 -1,934 Descending Seattle Center
Sat 11:29:25 PM 45.4436 -121.2989 284° West 357 411 15,300 -2,127 Descending Seattle Center
Sat 11:30:15 PM 45.4731 -121.4281 288° West 345 397 13,400 -2,054 Descending Seattle Center
Sat 11:31:16 PM 45.4983 -121.5564 286° West 335 386 11,500 -1,574 Descending Seattle Center
Sat 11:32:17 PM 45.5242 -121.6783 287° West 319 367 10,200 -1,041 Descending Seattle Center
Sat 11:33:17 PM 45.5347 -121.7914 278° West 263 303 9,400 -991 Descending Seattle Center
Sat 11:34:12 PM 45.5367 -121.8833 272° West 264 304 8,300 -1,029 Descending Seattle Center
Sat 11:34:27 PM 45.5325 -121.8925 237° Southwest 267 307 8,200 -1,300 Descending Seattle Center
Sat 11:35:12 PM 45.5294 -121.9853 267° West 253 291 7,000 -1,279 Descending Seattle Center
Sat 11:35:28 PM 45.5286 -122.0025 266° West 254 292 6,900 -327 Descending Seattle Center
Sat 11:36:07 PM 45.5269 -122.0667 268° West 215 247 6,700 -600 Descending Seattle Center
Sat 11:36:28 PM 45.5258 -122.0892 266° West 222 255 6,300 -1,200 Descending Seattle Center
Sat 11:37:07 PM 45.5222 -122.1489 265° West 201 231 5,500 -1,082 Descending Seattle Center
Sat 11:37:29 PM 45.5225 -122.1714 271° West 212 244 5,200 -545 Descending Seattle Center
Sat 11:38:02 PM 45.5197 -122.2211 265° West 202 232 5,000 -600 Descending Seattle Center
Sat 11:38:29 PM 45.5192 -122.2511 268° West 205 236 4,600 -885 Descending Seattle Center
Sat 11:39:03 PM 45.5156 -122.2969 264° West 192 221 4,100 -885 Descending Seattle Center
Sat 11:39:30 PM 45.5161 -122.3242 272° West 193 222 3,700 -889 Descending Seattle Center

Login

Don't have an account? Register now (free) for customized features, flight alerts, and more!